sensor_id;sensor_type;location;lat;lon;timestamp;P1;durP1;ratioP1;P2;durP2;ratioP2
36383;SDS011;22418;51.210;6.976;2023-10-09T00:02:25;41.13;;;17.02;;
36383;SDS011;22418;51.210;6.976;2023-10-09T00:04:56;39.47;;;17.27;;
36383;SDS011;22418;51.210;6.976;2023-10-09T00:07:27;36.07;;;17.33;;
36383;SDS011;22418;51.210;6.976;2023-10-09T00:10:00;39.75;;;16.60;;
36383;SDS011;22418;51.210;6.976;2023-10-09T00:12:33;40.03;;;16.95;;
36383;SDS011;22418;51.210;6.976;2023-10-09T00:15:04;42.73;;;17.20;;
36383;SDS011;22418;51.210;6.976;2023-10-09T00:17:41;42.38;;;17.08;;
36383;SDS011;22418;51.210;6.976;2023-10-09T00:20:16;46.40;;;18.13;;
36383;SDS011;22418;51.210;6.976;2023-10-09T00:22:54;45.08;;;17.08;;
36383;SDS011;22418;51.210;6.976;2023-10-09T00:25:26;44.38;;;19.77;;
36383;SDS011;22418;51.210;6.976;2023-10-09T00:28:06;44.05;;;17.10;;
36383;SDS011;22418;51.210;6.976;2023-10-09T00:30:42;38.42;;;17.42;;
36383;SDS011;22418;51.210;6.976;2023-10-09T00:33:13;29.75;;;15.82;;
36383;SDS011;22418;51.210;6.976;2023-10-09T00:35:43;40.23;;;17.63;;
36383;SDS011;22418;51.210;6.976;2023-10-09T00:38:14;41.77;;;17.20;;
36383;SDS011;22418;51.210;6.976;2023-10-09T00:40:53;42.55;;;16.42;;
36383;SDS011;22418;51.210;6.976;2023-10-09T00:43:32;38.83;;;16.15;;
36383;SDS011;22418;51.210;6.976;2023-10-09T00:46:05;44.00;;;17.65;;
36383;SDS011;22418;51.210;6.976;2023-10-09T00:48:55;42.65;;;17.48;;
36383;SDS011;22418;51.210;6.976;2023-10-09T00:51:27;39.47;;;15.13;;
36383;SDS011;22418;51.210;6.976;2023-10-09T00:54:07;32.65;;;15.75;;
36383;SDS011;22418;51.210;6.976;2023-10-09T00:56:44;30.52;;;14.52;;
36383;SDS011;22418;51.210;6.976;2023-10-09T00:59:21;37.17;;;15.52;;
36383;SDS011;22418;51.210;6.976;2023-10-09T01:01:55;30.90;;;15.00;;
36383;SDS011;22418;51.210;6.976;2023-10-09T01:04:26;31.65;;;15.40;;
36383;SDS011;22418;51.210;6.976;2023-10-09T01:06:59;44.03;;;14.80;;
36383;SDS011;22418;51.210;6.976;2023-10-09T01:09:39;36.45;;;15.15;;
36383;SDS011;22418;51.210;6.976;2023-10-09T01:12:13;36.72;;;14.73;;
36383;SDS011;22418;51.210;6.976;2023-10-09T01:14:47;33.47;;;13.60;;
36383;SDS011;22418;51.210;6.976;2023-10-09T01:17:25;33.45;;;14.48;;
36383;SDS011;22418;51.210;6.976;2023-10-09T01:20:05;35.25;;;13.70;;
36383;SDS011;22418;51.210;6.976;2023-10-09T01:22:46;39.85;;;13.50;;
36383;SDS011;22418;51.210;6.976;2023-10-09T01:25:20;30.60;;;13.52;;
36383;SDS011;22418;51.210;6.976;2023-10-09T01:27:51;28.27;;;13.40;;
36383;SDS011;22418;51.210;6.976;2023-10-09T01:30:22;28.67;;;13.07;;
36383;SDS011;22418;51.210;6.976;2023-10-09T01:32:53;32.95;;;13.30;;
36383;SDS011;22418;51.210;6.976;2023-10-09T01:35:27;29.42;;;13.15;;
36383;SDS011;22418;51.210;6.976;2023-10-09T01:38:02;30.95;;;15.18;;
36383;SDS011;22418;51.210;6.976;2023-10-09T01:40:40;26.20;;;12.57;;
36383;SDS011;22418;51.210;6.976;2023-10-09T01:43:11;30.33;;;13.45;;
36383;SDS011;22418;51.210;6.976;2023-10-09T01:45:42;45.25;;;13.75;;
36383;SDS011;22418;51.210;6.976;2023-10-09T01:48:16;26.92;;;11.98;;
36383;SDS011;22418;51.210;6.976;2023-10-09T01:50:53;31.35;;;11.80;;
36383;SDS011;22418;51.210;6.976;2023-10-09T01:53:24;38.17;;;12.70;;
36383;SDS011;22418;51.210;6.976;2023-10-09T01:56:08;32.10;;;12.45;;
36383;SDS011;22418;51.210;6.976;2023-10-09T01:58:44;26.23;;;12.27;;
36383;SDS011;22418;51.210;6.976;2023-10-09T02:01:17;24.40;;;11.93;;
36383;SDS011;22418;51.210;6.976;2023-10-09T02:03:47;25.57;;;11.60;;
36383;SDS011;22418;51.210;6.976;2023-10-09T02:06:21;26.83;;;11.77;;
36383;SDS011;22418;51.210;6.976;2023-10-09T02:08:56;26.33;;;11.85;;
36383;SDS011;22418;51.210;6.976;2023-10-09T02:11:27;25.20;;;13.07;;
36383;SDS011;22418;51.210;6.976;2023-10-09T02:14:08;32.03;;;12.65;;
36383;SDS011;22418;51.210;6.976;2023-10-09T02:16:50;24.20;;;11.77;;
36383;SDS011;22418;51.210;6.976;2023-10-09T02:19:44;29.33;;;11.60;;
36383;SDS011;22418;51.210;6.976;2023-10-09T02:22:22;24.23;;;10.82;;
36383;SDS011;22418;51.210;6.976;2023-10-09T02:24:56;21.38;;;10.55;;
36383;SDS011;22418;51.210;6.976;2023-10-09T02:27:29;24.33;;;11.10;;
36383;SDS011;22418;51.210;6.976;2023-10-09T02:30:17;25.38;;;10.85;;
36383;SDS011;22418;51.210;6.976;2023-10-09T02:32:56;25.77;;;11.55;;
36383;SDS011;22418;51.210;6.976;2023-10-09T02:35:39;28.52;;;12.40;;
36383;SDS011;22418;51.210;6.976;2023-10-09T02:38:12;26.02;;;11.10;;
36383;SDS011;22418;51.210;6.976;2023-10-09T02:40:44;27.20;;;11.45;;
36383;SDS011;22418;51.210;6.976;2023-10-09T02:43:33;24.85;;;11.23;;
36383;SDS011;22418;51.210;6.976;2023-10-09T02:46:14;20.95;;;10.88;;
36383;SDS011;22418;51.210;6.976;2023-10-09T02:48:58;22.05;;;11.13;;
36383;SDS011;22418;51.210;6.976;2023-10-09T02:51:30;23.23;;;10.75;;
36383;SDS011;22418;51.210;6.976;2023-10-09T02:54:03;22.83;;;11.02;;
36383;SDS011;22418;51.210;6.976;2023-10-09T02:56:57;23.55;;;10.20;;
36383;SDS011;22418;51.210;6.976;2023-10-09T02:59:37;21.65;;;10.48;;
36383;SDS011;22418;51.210;6.976;2023-10-09T03:02:11;23.40;;;9.93;;
36383;SDS011;22418;51.210;6.976;2023-10-09T03:04:42;25.67;;;9.73;;
36383;SDS011;22418;51.210;6.976;2023-10-09T03:07:12;25.23;;;10.83;;
36383;SDS011;22418;51.210;6.976;2023-10-09T03:09:43;20.23;;;9.63;;
36383;SDS011;22418;51.210;6.976;2023-10-09T03:12:14;18.33;;;9.83;;
36383;SDS011;22418;51.210;6.976;2023-10-09T03:14:48;21.85;;;10.38;;
36383;SDS011;22418;51.210;6.976;2023-10-09T03:17:19;20.80;;;9.80;;
36383;SDS011;22418;51.210;6.976;2023-10-09T03:19:49;19.90;;;8.60;;
36383;SDS011;22418;51.210;6.976;2023-10-09T03:22:20;24.43;;;9.43;;
36383;SDS011;22418;51.210;6.976;2023-10-09T03:24:51;19.92;;;9.27;;
36383;SDS011;22418;51.210;6.976;2023-10-09T03:29:53;24.23;;;9.80;;
36383;SDS011;22418;51.210;6.976;2023-10-09T03:32:24;20.97;;;9.77;;
36383;SDS011;22418;51.210;6.976;2023-10-09T03:34:54;27.93;;;9.40;;
36383;SDS011;22418;51.210;6.976;2023-10-09T03:37:25;21.48;;;10.20;;
36383;SDS011;22418;51.210;6.976;2023-10-09T03:40:05;23.42;;;9.85;;
36383;SDS011;22418;51.210;6.976;2023-10-09T03:42:37;19.55;;;8.80;;
36383;SDS011;22418;51.210;6.976;2023-10-09T03:45:12;20.92;;;8.90;;
36383;SDS011;22418;51.210;6.976;2023-10-09T03:47:48;17.90;;;8.27;;
36383;SDS011;22418;51.210;6.976;2023-10-09T03:50:18;18.70;;;9.87;;
36383;SDS011;22418;51.210;6.976;2023-10-09T03:53:05;17.35;;;9.55;;
36383;SDS011;22418;51.210;6.976;2023-10-09T03:55:42;24.77;;;9.60;;
36383;SDS011;22418;51.210;6.976;2023-10-09T03:58:13;23.47;;;9.93;;
36383;SDS011;22418;51.210;6.976;2023-10-09T04:00:44;22.05;;;10.32;;
36383;SDS011;22418;51.210;6.976;2023-10-09T04:03:15;21.17;;;9.00;;
36383;SDS011;22418;51.210;6.976;2023-10-09T04:05:46;20.20;;;9.83;;
36383;SDS011;22418;51.210;6.976;2023-10-09T04:08:16;20.63;;;9.47;;
36383;SDS011;22418;51.210;6.976;2023-10-09T04:10:59;19.67;;;8.77;;
36383;SDS011;22418;51.210;6.976;2023-10-09T04:13:34;15.70;;;8.02;;
36383;SDS011;22418;51.210;6.976;2023-10-09T04:16:04;20.30;;;9.25;;
36383;SDS011;22418;51.210;6.976;2023-10-09T04:18:58;19.45;;;9.18;;
36383;SDS011;22418;51.210;6.976;2023-10-09T04:21:38;17.83;;;8.85;;
36383;SDS011;22418;51.210;6.976;2023-10-09T04:24:11;18.20;;;8.35;;
36383;SDS011;22418;51.210;6.976;2023-10-09T04:26:43;16.47;;;8.30;;
36383;SDS011;22418;51.210;6.976;2023-10-09T04:29:15;23.77;;;9.07;;
36383;SDS011;22418;51.210;6.976;2023-10-09T04:31:58;18.17;;;9.68;;
36383;SDS011;22418;51.210;6.976;2023-10-09T04:34:30;19.10;;;8.70;;
36383;SDS011;22418;51.210;6.976;2023-10-09T04:37:07;19.70;;;8.50;;
36383;SDS011;22418;51.210;6.976;2023-10-09T04:39:44;16.83;;;8.60;;
36383;SDS011;22418;51.210;6.976;2023-10-09T04:42:17;19.60;;;8.90;;
36383;SDS011;22418;51.210;6.976;2023-10-09T04:44:54;20.23;;;9.30;;
36383;SDS011;22418;51.210;6.976;2023-10-09T04:47:36;17.95;;;8.88;;
36383;SDS011;22418;51.210;6.976;2023-10-09T04:50:19;18.50;;;9.00;;
36383;SDS011;22418;51.210;6.976;2023-10-09T04:52:59;22.98;;;9.75;;
36383;SDS011;22418;51.210;6.976;2023-10-09T04:55:45;22.08;;;9.65;;
36383;SDS011;22418;51.210;6.976;2023-10-09T04:58:24;16.33;;;8.73;;
36383;SDS011;22418;51.210;6.976;2023-10-09T05:00:58;27.83;;;8.93;;
36383;SDS011;22418;51.210;6.976;2023-10-09T05:03:28;17.70;;;9.37;;
36383;SDS011;22418;51.210;6.976;2023-10-09T05:06:19;18.80;;;9.75;;
36383;SDS011;22418;51.210;6.976;2023-10-09T05:09:12;21.80;;;8.57;;
36383;SDS011;22418;51.210;6.976;2023-10-09T05:11:44;21.15;;;9.15;;
36383;SDS011;22418;51.210;6.976;2023-10-09T05:14:24;22.15;;;9.27;;
36383;SDS011;22418;51.210;6.976;2023-10-09T05:17:08;19.52;;;9.60;;
36383;SDS011;22418;51.210;6.976;2023-10-09T05:19:45;22.88;;;9.55;;
36383;SDS011;22418;51.210;6.976;2023-10-09T05:22:24;22.70;;;8.45;;
36383;SDS011;22418;51.210;6.976;2023-10-09T05:25:21;19.88;;;9.43;;
36383;SDS011;22418;51.210;6.976;2023-10-09T05:28:12;19.15;;;9.02;;
36383;SDS011;22418;51.210;6.976;2023-10-09T05:31:01;19.38;;;9.82;;
36383;SDS011;22418;51.210;6.976;2023-10-09T05:33:38;20.80;;;8.60;;
36383;SDS011;22418;51.210;6.976;2023-10-09T05:36:08;15.77;;;8.40;;
36383;SDS011;22418;51.210;6.976;2023-10-09T05:38:51;18.27;;;9.18;;
36383;SDS011;22418;51.210;6.976;2023-10-09T05:41:51;20.85;;;8.45;;
36383;SDS011;22418;51.210;6.976;2023-10-09T05:44:21;22.07;;;8.83;;
36383;SDS011;22418;51.210;6.976;2023-10-09T05:47:11;21.50;;;9.30;;
36383;SDS011;22418;51.210;6.976;2023-10-09T05:50:01;20.15;;;8.98;;
36383;SDS011;22418;51.210;6.976;2023-10-09T05:52:38;20.20;;;8.90;;
36383;SDS011;22418;51.210;6.976;2023-10-09T05:55:08;16.63;;;8.47;;
36383;SDS011;22418;51.210;6.976;2023-10-09T05:57:54;20.67;;;9.07;;
36383;SDS011;22418;51.210;6.976;2023-10-09T06:00:26;23.52;;;8.60;;
36383;SDS011;22418;51.210;6.976;2023-10-09T06:03:15;15.93;;;8.52;;
36383;SDS011;22418;51.210;6.976;2023-10-09T06:05:54;17.52;;;8.07;;
36383;SDS011;22418;51.210;6.976;2023-10-09T06:08:28;19.65;;;8.55;;
36383;SDS011;22418;51.210;6.976;2023-10-09T06:11:12;18.90;;;9.52;;
36383;SDS011;22418;51.210;6.976;2023-10-09T06:14:02;16.73;;;9.02;;
36383;SDS011;22418;51.210;6.976;2023-10-09T06:16:34;25.67;;;9.05;;
36383;SDS011;22418;51.210;6.976;2023-10-09T06:19:12;21.58;;;8.40;;
36383;SDS011;22418;51.210;6.976;2023-10-09T06:21:49;16.88;;;8.27;;
36383;SDS011;22418;51.210;6.976;2023-10-09T06:24:23;18.75;;;8.05;;
36383;SDS011;22418;51.210;6.976;2023-10-09T06:26:56;19.80;;;8.35;;
36383;SDS011;22418;51.210;6.976;2023-10-09T06:29:29;18.33;;;8.50;;
36383;SDS011;22418;51.210;6.976;2023-10-09T06:32:05;17.67;;;8.40;;
36383;SDS011;22418;51.210;6.976;2023-10-09T06:37:23;17.75;;;7.57;;
36383;SDS011;22418;51.210;6.976;2023-10-09T06:39:55;16.65;;;8.23;;
36383;SDS011;22418;51.210;6.976;2023-10-09T06:42:26;17.38;;;7.68;;
36383;SDS011;22418;51.210;6.976;2023-10-09T06:45:04;20.85;;;8.32;;
36383;SDS011;22418;51.210;6.976;2023-10-09T06:47:46;15.45;;;8.23;;
36383;SDS011;22418;51.210;6.976;2023-10-09T06:50:39;15.75;;;8.23;;
36383;SDS011;22418;51.210;6.976;2023-10-09T06:53:37;16.95;;;8.68;;
36383;SDS011;22418;51.210;6.976;2023-10-09T06:56:28;18.50;;;8.20;;
36383;SDS011;22418;51.210;6.976;2023-10-09T06:59:04;18.98;;;7.68;;
36383;SDS011;22418;51.210;6.976;2023-10-09T07:02:11;17.42;;;7.97;;
36383;SDS011;22418;51.210;6.976;2023-10-09T07:05:02;18.52;;;8.40;;
36383;SDS011;22418;51.210;6.976;2023-10-09T07:07:40;15.88;;;8.32;;
36383;SDS011;22418;51.210;6.976;2023-10-09T07:10:22;17.42;;;7.57;;
36383;SDS011;22418;51.210;6.976;2023-10-09T07:13:02;18.53;;;8.30;;
36383;SDS011;22418;51.210;6.976;2023-10-09T07:15:33;17.65;;;7.88;;
36383;SDS011;22418;51.210;6.976;2023-10-09T07:18:30;14.10;;;7.32;;
36383;SDS011;22418;51.210;6.976;2023-10-09T07:21:19;16.58;;;7.85;;
36383;SDS011;22418;51.210;6.976;2023-10-09T07:23:57;18.77;;;8.18;;
36383;SDS011;22418;51.210;6.976;2023-10-09T07:26:43;21.25;;;8.43;;
36383;SDS011;22418;51.210;6.976;2023-10-09T07:29:23;17.42;;;9.10;;
36383;SDS011;22418;51.210;6.976;2023-10-09T07:31:53;21.70;;;9.03;;
36383;SDS011;22418;51.210;6.976;2023-10-09T07:34:27;21.40;;;9.27;;
36383;SDS011;22418;51.210;6.976;2023-10-09T07:37:00;17.35;;;8.75;;
36383;SDS011;22418;51.210;6.976;2023-10-09T07:39:33;19.48;;;8.43;;
36383;SDS011;22418;51.210;6.976;2023-10-09T07:42:04;21.87;;;8.40;;
36383;SDS011;22418;51.210;6.976;2023-10-09T07:45:03;20.75;;;8.95;;
36383;SDS011;22418;51.210;6.976;2023-10-09T07:47:49;13.73;;;7.32;;
36383;SDS011;22418;51.210;6.976;2023-10-09T07:50:36;18.25;;;8.82;;
36383;SDS011;22418;51.210;6.976;2023-10-09T07:53:10;16.98;;;8.55;;
36383;SDS011;22418;51.210;6.976;2023-10-09T07:56:13;13.73;;;8.32;;
36383;SDS011;22418;51.210;6.976;2023-10-09T07:58:50;17.95;;;8.68;;
36383;SDS011;22418;51.210;6.976;2023-10-09T08:01:21;19.85;;;9.52;;
36383;SDS011;22418;51.210;6.976;2023-10-09T08:03:52;15.33;;;8.30;;
36383;SDS011;22418;51.210;6.976;2023-10-09T08:06:32;18.15;;;9.45;;
36383;SDS011;22418;51.210;6.976;2023-10-09T08:09:09;17.95;;;8.98;;
36383;SDS011;22418;51.210;6.976;2023-10-09T08:11:46;17.25;;;8.15;;
36383;SDS011;22418;51.210;6.976;2023-10-09T08:14:43;18.33;;;9.38;;
36383;SDS011;22418;51.210;6.976;2023-10-09T08:17:18;19.50;;;9.32;;
36383;SDS011;22418;51.210;6.976;2023-10-09T08:19:52;18.73;;;9.45;;
36383;SDS011;22418;51.210;6.976;2023-10-09T08:22:27;21.85;;;9.70;;
36383;SDS011;22418;51.210;6.976;2023-10-09T08:24:59;28.38;;;10.25;;
36383;SDS011;22418;51.210;6.976;2023-10-09T08:27:30;21.30;;;9.77;;
36383;SDS011;22418;51.210;6.976;2023-10-09T08:30:02;17.33;;;8.80;;
36383;SDS011;22418;51.210;6.976;2023-10-09T08:32:49;19.95;;;8.82;;
36383;SDS011;22418;51.210;6.976;2023-10-09T08:35:33;16.48;;;8.32;;
36383;SDS011;22418;51.210;6.976;2023-10-09T08:38:05;22.25;;;7.90;;
36383;SDS011;22418;51.210;6.976;2023-10-09T08:40:40;14.30;;;8.32;;
36383;SDS011;22418;51.210;6.976;2023-10-09T08:43:19;18.80;;;7.93;;
36383;SDS011;22418;51.210;6.976;2023-10-09T08:45:53;14.23;;;7.47;;
36383;SDS011;22418;51.210;6.976;2023-10-09T08:48:30;17.70;;;7.82;;
36383;SDS011;22418;51.210;6.976;2023-10-09T08:51:02;18.58;;;8.10;;
36383;SDS011;22418;51.210;6.976;2023-10-09T08:53:37;19.98;;;7.82;;
36383;SDS011;22418;51.210;6.976;2023-10-09T08:56:13;20.63;;;8.52;;
36383;SDS011;22418;51.210;6.976;2023-10-09T08:58:58;17.85;;;8.23;;
36383;SDS011;22418;51.210;6.976;2023-10-09T09:01:35;23.85;;;9.68;;
36383;SDS011;22418;51.210;6.976;2023-10-09T09:04:05;19.77;;;10.27;;
36383;SDS011;22418;51.210;6.976;2023-10-09T09:06:38;21.40;;;9.23;;
36383;SDS011;22418;51.210;6.976;2023-10-09T09:09:11;21.10;;;8.98;;
36383;SDS011;22418;51.210;6.976;2023-10-09T09:11:45;20.25;;;9.70;;
36383;SDS011;22418;51.210;6.976;2023-10-09T09:14:19;27.20;;;9.50;;
36383;SDS011;22418;51.210;6.976;2023-10-09T09:16:51;20.63;;;9.55;;
36383;SDS011;22418;51.210;6.976;2023-10-09T09:19:30;20.90;;;8.67;;
36383;SDS011;22418;51.210;6.976;2023-10-09T09:22:02;21.38;;;8.30;;
36383;SDS011;22418;51.210;6.976;2023-10-09T09:24:42;21.92;;;9.52;;
36383;SDS011;22418;51.210;6.976;2023-10-09T09:27:45;24.90;;;9.00;;
36383;SDS011;22418;51.210;6.976;2023-10-09T09:30:23;18.27;;;8.82;;
36383;SDS011;22418;51.210;6.976;2023-10-09T09:36:13;16.55;;;8.00;;
36383;SDS011;22418;51.210;6.976;2023-10-09T09:38:43;25.97;;;9.53;;
36383;SDS011;22418;51.210;6.976;2023-10-09T09:41:17;17.42;;;8.90;;
36383;SDS011;22418;51.210;6.976;2023-10-09T09:43:57;22.05;;;9.85;;
36383;SDS011;22418;51.210;6.976;2023-10-09T09:46:33;26.05;;;9.45;;
36383;SDS011;22418;51.210;6.976;2023-10-09T09:49:04;21.38;;;8.98;;
36383;SDS011;22418;51.210;6.976;2023-10-09T09:51:42;20.70;;;8.50;;
36383;SDS011;22418;51.210;6.976;2023-10-09T09:54:16;17.83;;;8.18;;
36383;SDS011;22418;51.210;6.976;2023-10-09T09:56:47;22.00;;;8.70;;
36383;SDS011;22418;51.210;6.976;2023-10-09T09:59:22;24.15;;;8.68;;
36383;SDS011;22418;51.210;6.976;2023-10-09T10:01:58;16.83;;;7.75;;
36383;SDS011;22418;51.210;6.976;2023-10-09T10:04:37;21.60;;;8.05;;
36383;SDS011;22418;51.210;6.976;2023-10-09T10:07:10;15.52;;;7.72;;
36383;SDS011;22418;51.210;6.976;2023-10-09T10:12:16;19.83;;;8.50;;
36383;SDS011;22418;51.210;6.976;2023-10-09T10:15:17;27.40;;;7.75;;
36383;SDS011;22418;51.210;6.976;2023-10-09T10:20:31;17.08;;;8.15;;
36383;SDS011;22418;51.210;6.976;2023-10-09T10:23:14;20.17;;;8.52;;
36383;SDS011;22418;51.210;6.976;2023-10-09T10:25:49;17.00;;;6.93;;
36383;SDS011;22418;51.210;6.976;2023-10-09T10:28:21;15.27;;;7.40;;
36383;SDS011;22418;51.210;6.976;2023-10-09T10:31:08;12.98;;;6.63;;
36383;SDS011;22418;51.210;6.976;2023-10-09T10:36:25;15.45;;;7.30;;
36383;SDS011;22418;51.210;6.976;2023-10-09T10:39:00;14.75;;;6.72;;
36383;SDS011;22418;51.210;6.976;2023-10-09T10:41:35;14.57;;;6.50;;
36383;SDS011;22418;51.210;6.976;2023-10-09T10:44:38;15.85;;;7.78;;
36383;SDS011;22418;51.210;6.976;2023-10-09T10:47:12;16.63;;;6.82;;
36383;SDS011;22418;51.210;6.976;2023-10-09T10:49:54;16.73;;;6.07;;
36383;SDS011;22418;51.210;6.976;2023-10-09T10:52:28;13.75;;;6.63;;
36383;SDS011;22418;51.210;6.976;2023-10-09T10:55:14;13.35;;;6.32;;
36383;SDS011;22418;51.210;6.976;2023-10-09T10:58:14;14.13;;;7.57;;
36383;SDS011;22418;51.210;6.976;2023-10-09T11:00:54;13.15;;;6.22;;
36383;SDS011;22418;51.210;6.976;2023-10-09T11:03:27;13.85;;;6.70;;
36383;SDS011;22418;51.210;6.976;2023-10-09T11:06:05;16.25;;;5.88;;
36383;SDS011;22418;51.210;6.976;2023-10-09T11:08:45;15.00;;;6.38;;
36383;SDS011;22418;51.210;6.976;2023-10-09T11:11:25;15.40;;;7.25;;
36383;SDS011;22418;51.210;6.976;2023-10-09T11:14:11;16.35;;;6.43;;
36383;SDS011;22418;51.210;6.976;2023-10-09T11:16:45;16.17;;;7.03;;
36383;SDS011;22418;51.210;6.976;2023-10-09T11:19:19;15.25;;;6.35;;
36383;SDS011;22418;51.210;6.976;2023-10-09T11:21:59;12.18;;;6.15;;
36383;SDS011;22418;51.210;6.976;2023-10-09T11:24:37;11.95;;;6.80;;
36383;SDS011;22418;51.210;6.976;2023-10-09T11:27:07;17.20;;;6.07;;
36383;SDS011;22418;51.210;6.976;2023-10-09T11:29:48;15.05;;;6.20;;
36383;SDS011;22418;51.210;6.976;2023-10-09T11:32:20;16.40;;;5.90;;
36383;SDS011;22418;51.210;6.976;2023-10-09T11:35:11;19.83;;;6.80;;
36383;SDS011;22418;51.210;6.976;2023-10-09T11:37:45;15.30;;;6.43;;
36383;SDS011;22418;51.210;6.976;2023-10-09T11:40:32;15.25;;;6.65;;
36383;SDS011;22418;51.210;6.976;2023-10-09T11:43:21;13.80;;;6.80;;
36383;SDS011;22418;51.210;6.976;2023-10-09T11:46:15;14.98;;;6.88;;
36383;SDS011;22418;51.210;6.976;2023-10-09T11:49:09;18.23;;;7.32;;
36383;SDS011;22418;51.210;6.976;2023-10-09T11:51:51;14.48;;;7.28;;
36383;SDS011;22418;51.210;6.976;2023-10-09T11:54:41;18.55;;;7.28;;
36383;SDS011;22418;51.210;6.976;2023-10-09T11:57:14;13.25;;;6.25;;
36383;SDS011;22418;51.210;6.976;2023-10-09T11:59:47;14.65;;;7.35;;
36383;SDS011;22418;51.210;6.976;2023-10-09T12:02:22;15.13;;;7.60;;
36383;SDS011;22418;51.210;6.976;2023-10-09T12:04:53;15.13;;;6.63;;
36383;SDS011;22418;51.210;6.976;2023-10-09T12:07:25;16.50;;;6.78;;
36383;SDS011;22418;51.210;6.976;2023-10-09T12:09:57;10.85;;;5.80;;
36383;SDS011;22418;51.210;6.976;2023-10-09T12:12:28;12.53;;;6.60;;
36383;SDS011;22418;51.210;6.976;2023-10-09T12:14:58;14.67;;;6.67;;
36383;SDS011;22418;51.210;6.976;2023-10-09T12:17:29;14.33;;;6.70;;
36383;SDS011;22418;51.210;6.976;2023-10-09T12:19:59;13.87;;;6.40;;
36383;SDS011;22418;51.210;6.976;2023-10-09T12:22:32;12.50;;;6.50;;
36383;SDS011;22418;51.210;6.976;2023-10-09T12:25:03;19.73;;;6.67;;
36383;SDS011;22418;51.210;6.976;2023-10-09T12:27:34;15.32;;;6.65;;
36383;SDS011;22418;51.210;6.976;2023-10-09T12:30:05;12.43;;;6.60;;
36383;SDS011;22418;51.210;6.976;2023-10-09T12:32:36;13.93;;;6.82;;
36383;SDS011;22418;51.210;6.976;2023-10-09T12:35:06;18.03;;;7.37;;
36383;SDS011;22418;51.210;6.976;2023-10-09T12:37:47;16.67;;;7.28;;
36383;SDS011;22418;51.210;6.976;2023-10-09T12:40:22;18.67;;;6.85;;
36383;SDS011;22418;51.210;6.976;2023-10-09T12:43:00;20.50;;;7.70;;
36383;SDS011;22418;51.210;6.976;2023-10-09T12:45:33;14.43;;;6.83;;
36383;SDS011;22418;51.210;6.976;2023-10-09T12:48:04;18.92;;;6.10;;
36383;SDS011;22418;51.210;6.976;2023-10-09T12:50:39;15.80;;;5.80;;
36383;SDS011;22418;51.210;6.976;2023-10-09T12:53:14;14.75;;;6.45;;
36383;SDS011;22418;51.210;6.976;2023-10-09T12:55:47;14.73;;;6.15;;
36383;SDS011;22418;51.210;6.976;2023-10-09T12:58:18;11.53;;;6.27;;
36383;SDS011;22418;51.210;6.976;2023-10-09T13:00:49;16.77;;;7.30;;
36383;SDS011;22418;51.210;6.976;2023-10-09T13:03:19;18.57;;;7.07;;
36383;SDS011;22418;51.210;6.976;2023-10-09T13:05:52;15.05;;;6.95;;
36383;SDS011;22418;51.210;6.976;2023-10-09T13:08:27;20.80;;;7.78;;
36383;SDS011;22418;51.210;6.976;2023-10-09T13:11:07;14.80;;;6.35;;
36383;SDS011;22418;51.210;6.976;2023-10-09T13:13:43;17.08;;;7.07;;
36383;SDS011;22418;51.210;6.976;2023-10-09T13:16:18;13.57;;;6.80;;
36383;SDS011;22418;51.210;6.976;2023-10-09T13:18:55;12.05;;;6.60;;
36383;SDS011;22418;51.210;6.976;2023-10-09T13:21:27;15.70;;;6.10;;
36383;SDS011;22418;51.210;6.976;2023-10-09T13:24:05;20.15;;;7.32;;
36383;SDS011;22418;51.210;6.976;2023-10-09T13:26:42;18.83;;;7.15;;
36383;SDS011;22418;51.210;6.976;2023-10-09T13:29:21;19.10;;;6.93;;
36383;SDS011;22418;51.210;6.976;2023-10-09T13:31:54;13.88;;;6.18;;
36383;SDS011;22418;51.210;6.976;2023-10-09T13:34:32;19.10;;;7.07;;
36383;SDS011;22418;51.210;6.976;2023-10-09T13:37:03;15.75;;;6.95;;
36383;SDS011;22418;51.210;6.976;2023-10-09T13:39:41;15.32;;;6.53;;
36383;SDS011;22418;51.210;6.976;2023-10-09T13:42:26;15.73;;;6.40;;
36383;SDS011;22418;51.210;6.976;2023-10-09T13:44:57;15.73;;;6.82;;
36383;SDS011;22418;51.210;6.976;2023-10-09T13:47:27;16.63;;;7.10;;
36383;SDS011;22418;51.210;6.976;2023-10-09T13:50:01;13.10;;;6.38;;
36383;SDS011;22418;51.210;6.976;2023-10-09T13:52:32;19.50;;;7.53;;
36383;SDS011;22418;51.210;6.976;2023-10-09T13:55:09;14.90;;;6.63;;
36383;SDS011;22418;51.210;6.976;2023-10-09T13:57:45;16.73;;;6.45;;
36383;SDS011;22418;51.210;6.976;2023-10-09T14:00:16;12.40;;;6.33;;
36383;SDS011;22418;51.210;6.976;2023-10-09T14:03:03;16.83;;;6.75;;
36383;SDS011;22418;51.210;6.976;2023-10-09T14:05:41;14.98;;;7.80;;
36383;SDS011;22418;51.210;6.976;2023-10-09T14:08:26;12.77;;;6.57;;
36383;SDS011;22418;51.210;6.976;2023-10-09T14:10:59;14.40;;;7.07;;
36383;SDS011;22418;51.210;6.976;2023-10-09T14:13:30;16.77;;;6.85;;
36383;SDS011;22418;51.210;6.976;2023-10-09T14:16:00;15.37;;;7.07;;
36383;SDS011;22418;51.210;6.976;2023-10-09T14:18:32;15.55;;;7.82;;
36383;SDS011;22418;51.210;6.976;2023-10-09T14:21:03;13.18;;;7.28;;
36383;SDS011;22418;51.210;6.976;2023-10-09T14:23:46;15.95;;;7.80;;
36383;SDS011;22418;51.210;6.976;2023-10-09T14:26:18;19.83;;;7.78;;
36383;SDS011;22418;51.210;6.976;2023-10-09T14:28:51;20.60;;;7.77;;
36383;SDS011;22418;51.210;6.976;2023-10-09T14:31:23;18.98;;;7.28;;
36383;SDS011;22418;51.210;6.976;2023-10-09T14:33:58;15.98;;;6.95;;
36383;SDS011;22418;51.210;6.976;2023-10-09T14:36:28;17.83;;;7.10;;
36383;SDS011;22418;51.210;6.976;2023-10-09T14:39:03;22.17;;;8.38;;
36383;SDS011;22418;51.210;6.976;2023-10-09T14:41:34;18.23;;;7.47;;
36383;SDS011;22418;51.210;6.976;2023-10-09T14:44:05;15.37;;;6.70;;
36383;SDS011;22418;51.210;6.976;2023-10-09T14:46:36;18.43;;;7.40;;
36383;SDS011;22418;51.210;6.976;2023-10-09T14:49:06;16.03;;;6.93;;
36383;SDS011;22418;51.210;6.976;2023-10-09T14:51:37;18.33;;;8.07;;
36383;SDS011;22418;51.210;6.976;2023-10-09T14:54:07;15.90;;;8.60;;
36383;SDS011;22418;51.210;6.976;2023-10-09T14:56:38;18.63;;;7.93;;
36383;SDS011;22418;51.210;6.976;2023-10-09T14:59:11;17.67;;;7.35;;
36383;SDS011;22418;51.210;6.976;2023-10-09T15:01:42;19.50;;;8.65;;
36383;SDS011;22418;51.210;6.976;2023-10-09T15:04:12;18.17;;;7.33;;
36383;SDS011;22418;51.210;6.976;2023-10-09T15:06:44;15.70;;;7.07;;
36383;SDS011;22418;51.210;6.976;2023-10-09T15:09:18;21.98;;;7.72;;
36383;SDS011;22418;51.210;6.976;2023-10-09T15:11:52;19.48;;;7.10;;
36383;SDS011;22418;51.210;6.976;2023-10-09T15:14:23;15.45;;;7.30;;
36383;SDS011;22418;51.210;6.976;2023-10-09T15:16:54;14.27;;;6.73;;
36383;SDS011;22418;51.210;6.976;2023-10-09T15:19:24;14.93;;;7.23;;
36383;SDS011;22418;51.210;6.976;2023-10-09T15:21:59;17.75;;;7.90;;
36383;SDS011;22418;51.210;6.976;2023-10-09T15:24:30;19.97;;;8.00;;
36383;SDS011;22418;51.210;6.976;2023-10-09T15:27:00;15.97;;;7.57;;
36383;SDS011;22418;51.210;6.976;2023-10-09T15:29:31;18.63;;;8.07;;
36383;SDS011;22418;51.210;6.976;2023-10-09T15:32:03;16.52;;;6.93;;
36383;SDS011;22418;51.210;6.976;2023-10-09T15:34:44;16.63;;;7.22;;
36383;SDS011;22418;51.210;6.976;2023-10-09T15:37:14;17.07;;;6.57;;
36383;SDS011;22418;51.210;6.976;2023-10-09T15:39:47;13.98;;;6.85;;
36383;SDS011;22418;51.210;6.976;2023-10-09T15:42:19;16.15;;;6.45;;
36383;SDS011;22418;51.210;6.976;2023-10-09T15:44:51;14.30;;;6.93;;